createdAt,value
2018-07-05T00:02:06.265Z,47.32
2018-07-05T00:04:51.768Z,46.18
2018-07-05T00:07:37.223Z,46.58
2018-07-05T00:10:22.706Z,45.96
2018-07-05T00:13:08.232Z,46.28
2018-07-05T00:15:47.821Z,47.38
2018-07-05T00:18:33.436Z,46.80
2018-07-05T00:21:18.926Z,47.74
2018-07-05T00:23:58.611Z,46.58
2018-07-05T00:26:44.408Z,47.67
2018-07-05T00:29:30.149Z,47.51
2018-07-05T00:32:09.741Z,47.62
2018-07-05T00:34:55.337Z,47.43
2018-07-05T00:37:40.647Z,48.34
2018-07-05T00:40:25.866Z,48.35
2018-07-05T00:43:11.339Z,47.51
2018-07-05T00:45:56.945Z,47.88
2018-07-05T00:48:42.448Z,48.29
2018-07-05T00:51:28.065Z,48.58
2018-07-05T00:54:07.583Z,47.48
2018-07-05T00:56:52.926Z,48.26
2018-07-05T00:59:38.456Z,49.12
2018-07-05T01:02:24.047Z,48.46
2018-07-05T01:05:04.007Z,49.56
2018-07-05T01:07:49.571Z,49.38
2018-07-05T01:10:29.321Z,49.28
2018-07-05T01:13:14.904Z,50.13
2018-07-05T01:16:00.313Z,49.93
2018-07-05T01:18:45.844Z,49.96
2018-07-05T01:21:31.327Z,51.16
2018-07-05T01:24:16.893Z,50.67
2018-07-05T01:27:02.482Z,50.75
2018-07-05T01:29:48.268Z,51.92
2018-07-05T01:32:33.735Z,51.42
2018-07-05T01:35:19.150Z,51.08
2018-07-05T01:37:58.669Z,51.80
2018-07-05T01:40:44.115Z,52.31
2018-07-05T01:43:29.585Z,51.55
2018-07-05T01:46:15.012Z,51.77
2018-07-05T01:49:00.367Z,53.07
2018-07-05T01:51:45.861Z,52.16
2018-07-05T01:54:31.203Z,52.50
2018-07-05T01:57:16.862Z,53.16
2018-07-05T01:59:56.399Z,52.66
2018-07-05T02:02:42.028Z,53.51
2018-07-05T02:05:27.642Z,53.66
2018-07-05T02:08:13.000Z,53.89
2018-07-05T02:10:58.533Z,53.64
2018-07-05T02:13:44.431Z,53.57
2018-07-05T02:16:29.874Z,54.56
2018-07-05T02:19:15.536Z,54.41
2018-07-05T02:22:01.000Z,55.21
2018-07-05T02:24:40.538Z,54.81
2018-07-05T02:27:25.935Z,54.98
2018-07-05T02:30:11.455Z,55.50
2018-07-05T02:32:51.013Z,56.55
2018-07-05T02:35:36.560Z,56.48
2018-07-05T02:38:22.316Z,56.03
2018-07-05T02:41:07.754Z,56.26
2018-07-05T02:43:53.252Z,56.87
2018-07-05T02:46:38.648Z,56.53
2018-07-05T02:49:24.195Z,55.78
2018-07-05T02:52:09.768Z,56.87
2018-07-05T02:54:55.217Z,56.96
2018-07-05T02:57:40.705Z,56.44
2018-07-05T03:00:26.183Z,56.70
2018-07-05T03:03:11.682Z,57.15
2018-07-05T03:05:57.012Z,57.51
2018-07-05T03:08:42.743Z,58.23
2018-07-05T03:11:28.311Z,58.02
2018-07-05T03:14:14.108Z,59.74
2018-07-05T03:16:53.897Z,59.11
2018-07-05T03:19:39.485Z,59.76
2018-07-05T03:22:25.046Z,59.28
2018-07-05T03:25:04.568Z,59.11
2018-07-05T03:27:50.063Z,58.47
2018-07-05T03:30:29.572Z,58.53
2018-07-05T03:33:14.913Z,59.44
2018-07-05T03:36:00.370Z,60.14
2018-07-05T03:38:46.209Z,60.21
2018-07-05T03:41:31.782Z,60.33
2018-07-05T03:44:17.282Z,60.26
2018-07-05T03:47:02.650Z,59.96
2018-07-05T03:49:47.997Z,60.01
2018-07-05T03:52:33.501Z,59.67
2018-07-05T03:55:18.735Z,59.38
2018-07-05T03:58:04.220Z,59.53
2018-07-05T04:00:44.052Z,60.19
2018-07-05T04:03:23.815Z,60.50
2018-07-05T04:06:09.288Z,60.05
2018-07-05T04:08:48.863Z,60.58
2018-07-05T04:11:34.249Z,59.48
2018-07-05T04:14:19.629Z,60.27
2018-07-05T04:17:04.962Z,59.89
2018-07-05T04:19:51.327Z,60.46
2018-07-05T04:22:36.590Z,60.65
2018-07-05T04:25:22.330Z,60.89
2018-07-05T04:28:07.687Z,60.44
2018-07-05T04:30:53.471Z,59.94
2018-07-05T04:33:38.937Z,58.97
2018-07-05T04:36:24.384Z,59.42
2018-07-05T04:39:09.855Z,59.68
2018-07-05T04:41:55.277Z,59.39
2018-07-05T04:44:40.657Z,59.30
2018-07-05T04:47:25.824Z,58.85
2018-07-05T04:50:11.073Z,59.75
2018-07-05T04:52:56.442Z,60.52
2018-07-05T04:55:42.000Z,60.63
2018-07-05T04:58:27.443Z,60.28
2018-07-05T05:01:12.927Z,59.92
2018-07-05T05:03:58.360Z,59.84
2018-07-05T05:06:43.753Z,59.20
2018-07-05T05:09:29.121Z,59.83
2018-07-05T05:12:14.451Z,59.71
2018-07-05T05:15:02.855Z,58.24
2018-07-05T05:17:48.365Z,59.14
2018-07-05T05:20:33.837Z,59.27
2018-07-05T05:23:19.190Z,58.51
2018-07-05T05:26:04.519Z,58.38
2018-07-05T05:28:44.209Z,58.60
2018-07-05T05:31:29.630Z,58.99
2018-07-05T05:34:15.015Z,59.49
2018-07-05T05:37:00.554Z,60.20
2018-07-05T05:39:46.363Z,59.91
2018-07-05T05:42:31.735Z,59.50
2018-07-05T05:45:17.573Z,58.47
2018-07-05T05:48:03.533Z,59.42
2018-07-05T05:50:49.223Z,59.28
2018-07-05T05:53:34.871Z,59.19
2018-07-05T05:56:20.404Z,59.55
2018-07-05T05:59:10.254Z,59.36
2018-07-05T06:01:56.092Z,61.32
2018-07-05T06:04:41.796Z,61.20
2018-07-05T06:07:28.248Z,60.54
2018-07-05T06:10:14.991Z,60.24
2018-07-05T06:13:00.634Z,61.11
2018-07-05T06:15:46.249Z,61.83
2018-07-05T06:18:25.872Z,61.86
2018-07-05T06:21:05.628Z,61.11
2018-07-05T06:23:51.134Z,61.24
2018-07-05T06:26:36.577Z,61.16
2018-07-05T06:29:21.916Z,60.36
2018-07-05T06:32:07.761Z,60.47
2018-07-05T06:34:47.592Z,60.87
2018-07-05T06:37:33.101Z,59.91
2018-07-05T06:40:18.767Z,59.56
2018-07-05T06:43:04.439Z,60.54
2018-07-05T06:45:50.213Z,59.02
2018-07-05T06:48:35.668Z,60.45
2018-07-05T06:51:21.297Z,60.70
2018-07-05T06:54:07.133Z,60.40
2018-07-05T06:56:52.576Z,61.91
2018-07-05T06:59:32.198Z,61.02
2018-07-05T07:02:17.852Z,62.29
2018-07-05T07:05:03.199Z,62.53
2018-07-05T07:07:48.494Z,62.41
2018-07-05T07:10:34.196Z,62.17
2018-07-05T07:13:19.470Z,63.47
2018-07-05T07:16:05.060Z,63.25
2018-07-05T07:18:50.452Z,62.37
2018-07-05T07:21:36.154Z,60.86
2018-07-05T07:24:21.533Z,60.27
2018-07-05T07:27:07.037Z,58.42
2018-07-05T07:29:52.820Z,59.30
2018-07-05T07:32:32.514Z,58.89
2018-07-05T07:35:17.904Z,59.15
2018-07-05T07:38:03.235Z,60.01
2018-07-05T07:40:48.805Z,60.24
2018-07-05T07:43:16.120Z,59.35
2018-07-05T07:45:42.910Z,58.86
2018-07-05T07:48:09.800Z,59.07
2018-07-05T07:50:36.456Z,58.19
2018-07-05T07:53:03.326Z,59.00
2018-07-05T07:55:30.457Z,58.55
2018-07-05T07:57:58.104Z,59.10
2018-07-05T08:00:28.323Z,60.81
2018-07-05T08:02:55.019Z,61.96
2018-07-05T08:05:22.289Z,63.61
2018-07-05T08:07:49.163Z,64.22
2018-07-05T08:10:15.877Z,63.62
2018-07-05T08:12:42.488Z,62.67
2018-07-05T08:15:09.243Z,61.95
2018-07-05T08:17:35.837Z,61.36
2018-07-05T08:20:02.740Z,60.29
2018-07-05T08:22:29.598Z,59.67
2018-07-05T08:24:56.346Z,59.18
2018-07-05T08:27:22.990Z,58.83
2018-07-05T08:29:49.809Z,59.54
2018-07-05T08:32:16.689Z,57.17
2018-07-05T08:34:43.367Z,57.96
2018-07-05T08:37:10.253Z,57.35
2018-07-05T08:39:38.322Z,57.56
2018-07-05T08:42:05.509Z,57.33
2018-07-05T08:44:32.534Z,58.49
2018-07-05T08:46:59.209Z,57.34
2018-07-05T08:49:25.852Z,55.97
2018-07-05T08:51:55.385Z,57.90
2018-07-05T08:54:23.603Z,57.74
2018-07-05T08:56:50.700Z,56.83
2018-07-05T08:59:17.695Z,55.89
2018-07-05T09:01:44.408Z,56.10
2018-07-05T09:04:11.126Z,55.57
2018-07-05T09:06:38.043Z,54.27
2018-07-05T09:09:05.710Z,53.75
2018-07-05T09:11:34.125Z,54.54
2018-07-05T09:14:00.871Z,53.82
2018-07-05T09:16:27.515Z,53.25
2018-07-05T09:18:54.300Z,53.14
2018-07-05T09:21:21.517Z,53.03
2018-07-05T09:23:48.885Z,52.40
2018-07-05T09:26:15.400Z,52.40
2018-07-05T09:28:42.107Z,52.70
2018-07-05T09:31:08.812Z,51.68
2018-07-05T09:33:35.543Z,51.06
2018-07-05T09:36:02.151Z,51.47
2018-07-05T09:38:28.932Z,50.79
2018-07-05T09:40:55.525Z,49.55
2018-07-05T09:43:22.277Z,49.50
2018-07-05T09:45:49.028Z,48.20
2018-07-05T09:48:15.653Z,48.46
2018-07-05T09:50:42.327Z,47.54
2018-07-05T09:53:09.037Z,46.89
2018-07-05T09:55:35.679Z,46.65
2018-07-05T09:58:02.423Z,45.85
2018-07-05T10:00:34.736Z,45.86
2018-07-05T10:03:01.872Z,46.16
2018-07-05T10:05:28.632Z,47.47
2018-07-05T10:07:55.341Z,47.95
2018-07-05T10:10:22.001Z,47.64
2018-07-05T10:12:48.790Z,46.94
2018-07-05T10:15:15.437Z,45.09
2018-07-05T10:17:42.180Z,44.90
2018-07-05T10:20:08.800Z,45.21
2018-07-05T10:22:35.695Z,44.03
2018-07-05T10:25:02.379Z,44.00
2018-07-05T10:27:29.276Z,43.18
2018-07-05T10:30:14.788Z,44.35
2018-07-05T10:33:00.742Z,44.22
2018-07-05T10:35:27.907Z,44.14
2018-07-05T10:37:58.332Z,44.66
2018-07-05T10:40:39.287Z,43.48
2018-07-05T10:43:24.752Z,42.99
2018-07-05T10:46:10.224Z,43.83
2018-07-05T10:48:55.887Z,43.17
2018-07-05T10:51:41.301Z,43.63
2018-07-05T10:54:26.900Z,43.46
2018-07-05T10:57:12.261Z,43.90
2018-07-05T10:59:57.830Z,43.85
2018-07-05T11:02:43.239Z,43.62
2018-07-05T11:05:28.901Z,43.94
2018-07-05T11:08:14.513Z,43.70
2018-07-05T11:11:00.139Z,43.52
2018-07-05T11:13:46.344Z,44.46
2018-07-05T11:16:31.948Z,44.34
2018-07-05T11:19:17.366Z,43.87
2018-07-05T11:22:03.021Z,42.85
2018-07-05T11:24:48.409Z,42.06
2018-07-05T11:27:34.008Z,43.64
2018-07-05T11:30:19.488Z,42.62
2018-07-05T11:33:05.079Z,41.50
2018-07-05T11:35:44.809Z,41.51
2018-07-05T11:38:30.403Z,41.49
2018-07-05T11:41:15.712Z,42.33
2018-07-05T11:44:01.205Z,40.85
2018-07-05T11:46:46.603Z,41.83
2018-07-05T11:49:32.109Z,43.29
2018-07-05T11:52:17.710Z,43.27
2018-07-05T11:55:03.146Z,42.54
2018-07-05T11:57:48.513Z,43.37
2018-07-05T12:00:33.982Z,42.48
2018-07-05T12:03:19.294Z,41.53
2018-07-05T12:06:04.716Z,40.63
2018-07-05T12:08:50.179Z,40.88
2018-07-05T12:11:29.788Z,42.07
2018-07-05T12:14:15.226Z,41.61
2018-07-05T12:17:00.638Z,41.76
2018-07-05T12:19:46.160Z,42.71
2018-07-05T12:22:25.816Z,43.10
2018-07-05T12:25:05.535Z,42.58
2018-07-05T12:27:51.163Z,43.63
2018-07-05T12:30:36.664Z,42.22
2018-07-05T12:33:22.113Z,40.79
2018-07-05T12:36:01.693Z,40.22
2018-07-05T12:38:47.345Z,40.46
2018-07-05T12:41:32.968Z,40.19
2018-07-05T12:44:18.193Z,40.77
2018-07-05T12:47:03.640Z,40.20
2018-07-05T12:49:49.034Z,39.88
2018-07-05T12:52:28.775Z,38.91
2018-07-05T12:55:14.541Z,38.07
2018-07-05T12:58:00.012Z,37.92
2018-07-05T13:00:45.392Z,37.42
2018-07-05T13:03:30.798Z,37.54
2018-07-05T13:06:10.287Z,37.86
2018-07-05T13:08:55.697Z,37.25
2018-07-05T13:11:41.508Z,36.46
2018-07-05T13:14:27.255Z,34.71
2018-07-05T13:17:13.040Z,35.34
2018-07-05T13:19:58.577Z,35.27
2018-07-05T13:22:37.987Z,33.66
2018-07-05T13:25:23.385Z,34.05
2018-07-05T13:28:02.863Z,34.97
2018-07-05T13:30:48.360Z,34.44
2018-07-05T13:33:34.175Z,34.36
2018-07-05T13:36:19.537Z,35.13
2018-07-05T13:39:05.421Z,36.41
2018-07-05T13:41:53.715Z,36.01
2018-07-05T13:44:41.259Z,36.43
2018-07-05T13:47:24.605Z,36.60
2018-07-05T13:50:13.705Z,36.93
2018-07-05T13:52:59.648Z,36.11
2018-07-05T13:55:45.496Z,36.81
2018-07-05T13:58:31.592Z,35.85
2018-07-05T14:01:17.752Z,37.15
2018-07-05T14:03:58.066Z,36.02
2018-07-05T14:06:39.858Z,35.78
2018-07-05T14:09:19.652Z,36.94
2018-07-05T14:12:04.987Z,35.70
2018-07-05T14:14:44.694Z,35.92
2018-07-05T14:17:30.172Z,36.73
2018-07-05T14:20:20.103Z,35.47
2018-07-05T14:23:06.380Z,35.43
2018-07-05T14:25:52.151Z,35.05
2018-07-05T14:28:39.878Z,34.89
2018-07-05T14:31:25.683Z,35.32
2018-07-05T14:34:11.247Z,36.02
2018-07-05T14:36:59.185Z,35.23
2018-07-05T14:39:44.733Z,36.00
2018-07-05T14:42:30.646Z,35.18
2018-07-05T14:45:16.234Z,35.25
2018-07-05T14:48:01.623Z,35.51
2018-07-05T14:50:46.976Z,36.14
2018-07-05T14:53:32.331Z,36.80
2018-07-05T14:56:17.649Z,37.53
2018-07-05T14:59:03.015Z,36.33
2018-07-05T15:01:48.707Z,35.49
2018-07-05T15:04:34.243Z,35.70
2018-07-05T15:07:13.946Z,37.50
2018-07-05T15:10:03.917Z,37.63
2018-07-05T15:12:50.411Z,36.31
2018-07-05T15:15:36.389Z,37.40
2018-07-05T15:18:21.845Z,35.57
2018-07-05T15:21:07.710Z,37.04
2018-07-05T15:23:53.537Z,38.22
2018-07-05T15:26:41.662Z,36.63
2018-07-05T15:29:28.115Z,37.28
2018-07-05T15:32:09.771Z,36.91
2018-07-05T15:34:58.246Z,36.46
2018-07-05T15:37:46.638Z,37.72
2018-07-05T15:40:34.121Z,37.46
2018-07-05T15:43:25.494Z,38.77
2018-07-05T15:46:07.456Z,37.34
2018-07-05T15:48:53.895Z,37.64
2018-07-05T15:51:33.345Z,38.63
2018-07-05T15:54:18.698Z,37.93
2018-07-05T15:57:04.073Z,38.47
2018-07-05T15:59:49.604Z,38.04
2018-07-05T16:02:35.201Z,38.50
2018-07-05T16:05:20.661Z,38.09
2018-07-05T16:08:06.139Z,38.06
2018-07-05T16:10:51.555Z,37.96
2018-07-05T16:13:37.773Z,37.77
2018-07-05T16:16:23.064Z,37.04
2018-07-05T16:19:02.753Z,37.52
2018-07-05T16:21:48.538Z,37.77
2018-07-05T16:24:34.085Z,37.33
2018-07-05T16:27:20.457Z,38.10
2018-07-05T16:30:06.121Z,38.55
2018-07-05T16:32:51.626Z,38.24
2018-07-05T16:35:37.374Z,39.24
2018-07-05T16:38:23.312Z,39.22
2018-07-05T16:41:08.990Z,38.79
2018-07-05T16:43:54.419Z,38.77
2018-07-05T16:46:39.866Z,37.53
2018-07-05T16:49:25.302Z,38.44
2018-07-05T16:52:10.784Z,38.69
2018-07-05T16:54:56.359Z,37.66
2018-07-05T16:57:51.561Z,37.75
2018-07-05T17:00:37.081Z,37.19
2018-07-05T17:03:24.140Z,37.18
2018-07-05T17:06:10.072Z,37.85
2018-07-05T17:08:55.488Z,37.06
2018-07-05T17:11:40.823Z,38.15
2018-07-05T17:14:26.356Z,37.88
2018-07-05T17:17:11.813Z,37.24
2018-07-05T17:19:57.806Z,38.40
2018-07-05T17:22:43.164Z,38.92
2018-07-05T17:25:28.765Z,38.33
2018-07-05T17:28:14.771Z,38.54
2018-07-05T17:30:54.712Z,37.95
2018-07-05T17:33:40.006Z,38.33
2018-07-05T17:36:19.584Z,39.14
2018-07-05T17:39:05.784Z,38.49
2018-07-05T17:41:51.323Z,39.54
2018-07-05T17:44:31.147Z,38.72
2018-07-05T17:47:16.756Z,39.06
2018-07-05T17:50:02.582Z,40.01
2018-07-05T17:52:48.144Z,39.58
2018-07-05T17:55:33.448Z,38.64
2018-07-05T17:58:18.989Z,39.08
2018-07-05T18:00:58.968Z,38.48
2018-07-05T18:03:44.542Z,39.99
2018-07-05T18:06:30.076Z,39.73
2018-07-05T18:09:15.598Z,39.50
2018-07-05T18:12:00.958Z,40.15
2018-07-05T18:14:46.326Z,40.73
2018-07-05T18:17:31.793Z,40.89
2018-07-05T18:20:17.125Z,41.12
2018-07-05T18:23:02.533Z,41.19
2018-07-05T18:25:48.117Z,41.47
2018-07-05T18:28:33.551Z,40.88
2018-07-05T18:31:18.927Z,41.77
2018-07-05T18:33:58.563Z,41.82
2018-07-05T18:36:44.372Z,43.05
2018-07-05T18:39:29.869Z,42.91
2018-07-05T18:42:15.397Z,43.29
2018-07-05T18:45:00.985Z,42.94
2018-07-05T18:47:46.426Z,43.27
2018-07-05T18:50:32.648Z,42.72
2018-07-05T18:53:18.412Z,42.44
2018-07-05T18:56:03.912Z,43.78
2018-07-05T18:58:49.387Z,43.76
2018-07-05T19:01:35.212Z,43.97
2018-07-05T19:04:20.958Z,44.03
2018-07-05T19:07:06.369Z,43.62
2018-07-05T19:09:51.898Z,43.15
2018-07-05T19:12:37.448Z,43.09
2018-07-05T19:15:22.892Z,43.29
2018-07-05T19:18:08.546Z,43.96
2018-07-05T19:20:53.897Z,43.68
2018-07-05T19:23:39.599Z,43.86
2018-07-05T19:26:25.073Z,44.12
2018-07-05T19:29:10.780Z,43.29
2018-07-05T19:31:56.268Z,44.82
2018-07-05T19:34:41.798Z,44.81
2018-07-05T19:37:27.407Z,45.31
2018-07-05T19:40:12.745Z,45.37
2018-07-05T19:42:58.220Z,45.54
2018-07-05T19:45:43.692Z,45.70
2018-07-05T19:48:29.372Z,46.27
2018-07-05T19:51:14.863Z,45.14
2018-07-05T19:54:00.398Z,45.90
2018-07-05T19:56:46.109Z,46.21
2018-07-05T19:59:31.806Z,46.36
2018-07-05T20:02:17.400Z,47.39
2018-07-05T20:05:02.900Z,48.26
2018-07-05T20:07:48.532Z,48.70
2018-07-05T20:10:33.960Z,48.16
2018-07-05T20:13:19.433Z,48.81
2018-07-05T20:16:04.879Z,48.64
2018-07-05T20:18:50.174Z,49.86
2018-07-05T20:21:35.778Z,49.77
2018-07-05T20:24:15.300Z,50.78
2018-07-05T20:27:00.823Z,50.27
2018-07-05T20:29:46.135Z,50.78
2018-07-05T20:32:31.453Z,50.62
2018-07-05T20:35:10.927Z,51.47
2018-07-05T20:37:56.493Z,52.24
2018-07-05T20:40:41.968Z,52.98
2018-07-05T20:43:27.537Z,53.13
2018-07-05T20:46:07.209Z,53.19
2018-07-05T20:48:52.855Z,54.38
2018-07-05T20:51:38.517Z,54.93
2018-07-05T20:54:23.892Z,54.68
2018-07-05T20:57:09.207Z,55.69
2018-07-05T20:59:48.908Z,54.94
2018-07-05T21:02:34.465Z,55.36
2018-07-05T21:05:19.886Z,55.95
2018-07-05T21:08:05.420Z,56.30
2018-07-05T21:10:50.816Z,56.56
2018-07-05T21:13:36.257Z,57.15
2018-07-05T21:16:15.849Z,56.52
2018-07-05T21:19:01.452Z,57.30
2018-07-05T21:21:46.950Z,57.51
2018-07-05T21:24:32.488Z,57.45
2018-07-05T21:27:17.917Z,57.76
2018-07-05T21:30:03.493Z,58.12
2018-07-05T21:32:43.299Z,57.76
2018-07-05T21:35:28.857Z,57.99
2018-07-05T21:38:14.428Z,57.78
2018-07-05T21:41:00.764Z,57.57
2018-07-05T21:43:46.325Z,57.93
2018-07-05T21:46:31.647Z,59.37
2018-07-05T21:49:20.697Z,58.72
2018-07-05T21:52:06.196Z,58.14
2018-07-05T21:54:51.523Z,58.79
2018-07-05T21:57:37.063Z,58.67
2018-07-05T22:00:22.537Z,59.30
2018-07-05T22:03:08.336Z,59.35
2018-07-05T22:05:47.984Z,59.72
2018-07-05T22:08:33.446Z,59.18
2018-07-05T22:11:19.120Z,59.68
2018-07-05T22:14:04.495Z,59.17
2018-07-05T22:16:49.756Z,59.69
2018-07-05T22:19:41.057Z,59.26
2018-07-05T22:22:32.331Z,59.29
2018-07-05T22:25:23.397Z,59.01
2018-07-05T22:28:14.554Z,59.79
2018-07-05T22:31:05.856Z,59.54
2018-07-05T22:33:51.232Z,60.04
2018-07-05T22:36:36.522Z,60.68
2018-07-05T22:39:16.160Z,60.19
2018-07-05T22:42:01.684Z,61.12
2018-07-05T22:44:47.089Z,59.57
2018-07-05T22:47:32.468Z,59.35
2018-07-05T22:50:17.821Z,59.99
2018-07-05T22:53:03.160Z,60.81
2018-07-05T22:55:48.621Z,61.52
2018-07-05T22:58:34.309Z,62.49
2018-07-05T23:01:19.595Z,61.92
2018-07-05T23:04:04.940Z,61.60
2018-07-05T23:06:50.418Z,62.31
2018-07-05T23:09:36.101Z,62.80
2018-07-05T23:12:21.806Z,62.31
2018-07-05T23:15:07.487Z,62.32
2018-07-05T23:17:52.878Z,62.52
2018-07-05T23:20:38.216Z,62.16
2018-07-05T23:23:18.116Z,63.04
2018-07-05T23:26:03.590Z,63.25
2018-07-05T23:28:49.166Z,62.69
2018-07-05T23:31:34.655Z,62.92
2018-07-05T23:34:20.110Z,63.17
2018-07-05T23:37:05.640Z,64.47
2018-07-05T23:39:51.388Z,64.45
2018-07-05T23:42:36.831Z,64.48
2018-07-05T23:45:22.205Z,64.53
2018-07-05T23:48:07.601Z,65.47
2018-07-05T23:50:53.219Z,64.71
2018-07-05T23:53:38.751Z,65.05
2018-07-05T23:56:24.301Z,65.81
2018-07-05T23:59:03.960Z,66.35
